Time;durP1;ratioP1;P1;durP2;ratioP2;P2;SDS_P1;SDS_P2;PMS_P1;PMS_P2;Temp;Humidity;BMP_temperature;BMP_pressure;BME280_temperature;BME280_humidity;BME280_pressure;Samples;Min_cycle;Max_cycle;Signal;HPM_P1;HPM_P2
2023/02/16 00:00:48;;;;;;;66.10;29.98;;;0.90;99.90;;;;;;2094149;28;20009;-85
2023/02/16 00:01:49;;;;;;;64.90;31.17;;;0.90;99.90;;;;;;2106715;28;20058;-86
2023/02/16 00:02:50;;;;;;;66.15;30.75;;;0.90;99.90;;;;;;2099208;28;20025;-86
2023/02/16 00:03:51;;;;;;;67.47;31.20;;;0.90;99.90;;;;;;2080672;28;20079;-85
2023/02/16 00:04:52;;;;;;;64.85;29.60;;;0.90;99.90;;;;;;2081188;28;20511;-85
2023/02/16 00:05:52;;;;;;;61.05;28.60;;;0.90;99.90;;;;;;2076378;28;20029;-85
2023/02/16 00:06:54;;;;;;;60.50;29.17;;;0.80;99.90;;;;;;2077041;28;20488;-86
2023/02/16 00:07:56;;;;;;;65.28;30.23;;;0.80;99.90;;;;;;2090692;28;20013;-87
2023/02/16 00:08:56;;;;;;;64.25;29.55;;;0.80;99.90;;;;;;2080377;28;20029;-87
2023/02/16 00:09:57;;;;;;;63.20;29.95;;;0.80;99.90;;;;;;2083504;28;20473;-86
2023/02/16 00:13:51;;;;;;;65.78;29.70;;;0.90;99.90;;;;;;2091503;28;20127;-85
2023/02/16 00:14:52;;;;;;;66.13;30.27;;;0.90;99.90;;;;;;2086283;28;20055;-85
2023/02/16 00:15:52;;;;;;;64.38;29.40;;;0.90;99.90;;;;;;2082263;28;20495;-85
2023/02/16 00:16:56;;;;;;;64.90;30.70;;;0.90;99.90;;;;;;2079138;28;20045;-86
2023/02/16 00:17:59;;;;;;;65.47;30.30;;;0.90;99.90;;;;;;2084731;28;20028;-85
2023/02/16 00:19:00;;;;;;;67.93;30.23;;;0.90;99.90;;;;;;2075800;28;20029;-82
2023/02/16 00:20:00;;;;;;;59.67;28.50;;;0.80;99.90;;;;;;2075513;28;20065;-85
2023/02/16 00:21:01;;;;;;;63.05;28.90;;;0.80;99.90;;;;;;2082777;28;20033;-85
2023/02/16 00:22:02;;;;;;;68.43;29.85;;;0.80;99.90;;;;;;2069171;28;20060;-83
2023/02/16 00:23:02;;;;;;;66.05;30.02;;;0.80;99.90;;;;;;2071183;28;20516;-84
2023/02/16 00:24:03;;;;;;;68.15;29.55;;;0.70;99.90;;;;;;2076737;28;20112;-84
2023/02/16 00:25:04;;;;;;;67.15;30.52;;;0.70;99.90;;;;;;2077833;28;20072;-85
2023/02/16 00:26:10;;;;;;;66.90;30.80;;;0.70;99.90;;;;;;2067699;28;20571;-85
2023/02/16 00:27:17;;;;;;;66.32;30.33;;;0.70;99.90;;;;;;2077310;28;20659;-85
2023/02/16 00:28:19;;;;;;;62.75;29.50;;;0.70;99.90;;;;;;2076965;28;20044;-84
2023/02/16 00:29:25;;;;;;;64.80;29.23;;;0.70;99.90;;;;;;2089077;28;20037;-85
2023/02/16 00:30:25;;;;;;;61.20;28.33;;;0.70;99.90;;;;;;2104237;28;20657;-86
2023/02/16 00:31:31;;;;;;;65.82;29.77;;;0.70;99.90;;;;;;2095979;28;20571;-84
2023/02/16 00:32:31;;;;;;;70.85;31.60;;;0.70;99.90;;;;;;2088078;28;20028;-83
2023/02/16 00:33:32;;;;;;;63.88;29.70;;;0.70;99.90;;;;;;2084028;28;20025;-84
2023/02/16 00:34:35;;;;;;;65.68;30.23;;;0.70;99.90;;;;;;2079713;28;20041;-84
2023/02/16 00:35:36;;;;;;;68.20;31.00;;;0.70;99.90;;;;;;2098234;28;20062;-84
2023/02/16 00:36:36;;;;;;;66.50;30.60;;;0.80;99.90;;;;;;2097022;28;20077;-82
2023/02/16 00:37:37;;;;;;;68.00;30.08;;;0.80;99.90;;;;;;2102258;28;20034;-83
2023/02/16 00:38:37;;;;;;;64.78;29.35;;;0.80;99.90;;;;;;2085068;28;20037;-84
2023/02/16 00:39:39;;;;;;;62.70;30.05;;;0.80;99.90;;;;;;2084940;28;20152;-83
2023/02/16 00:40:41;;;;;;;63.00;28.98;;;0.80;99.90;;;;;;2086107;28;20052;-83
2023/02/16 00:41:52;;;;;;;61.42;28.30;;;0.80;99.90;;;;;;2073547;28;20032;-84
2023/02/16 00:42:53;;;;;;;62.40;29.00;;;0.80;99.90;;;;;;2074729;28;20046;-84
2023/02/16 00:43:56;;;;;;;61.70;29.15;;;0.70;99.90;;;;;;2081005;28;20459;-84
2023/02/16 00:44:57;;;;;;;66.93;31.10;;;0.70;99.90;;;;;;2072484;28;20049;-83
2023/02/16 00:45:58;;;;;;;67.82;30.58;;;0.70;99.90;;;;;;2076550;28;20693;-84
2023/02/16 00:47:26;;;;;;;71.43;31.98;;;0.70;99.90;;;;;;2081172;28;20033;-84
2023/02/16 00:48:26;;;;;;;66.57;29.88;;;0.80;99.90;;;;;;2085562;28;20039;-84
2023/02/16 00:49:27;;;;;;;65.82;30.23;;;0.70;99.90;;;;;;2094439;28;20055;-85
2023/02/16 00:50:30;;;;;;;65.53;31.10;;;0.70;99.90;;;;;;2080870;28;20037;-83
2023/02/16 00:51:31;;;;;;;65.60;30.77;;;0.70;99.90;;;;;;2085799;28;20040;-83
2023/02/16 00:52:34;;;;;;;65.97;30.42;;;0.70;99.90;;;;;;2087308;28;20032;-82
2023/02/16 00:53:34;;;;;;;67.20;30.23;;;0.70;99.90;;;;;;2073368;28;20032;-84
2023/02/16 00:54:35;;;;;;;65.97;29.00;;;0.70;99.90;;;;;;2083884;28;20886;-84
2023/02/16 00:55:37;;;;;;;65.47;29.63;;;0.70;99.90;;;;;;2083791;28;20041;-85
2023/02/16 00:56:39;;;;;;;67.65;30.15;;;0.70;99.90;;;;;;2075387;28;20578;-85
2023/02/16 00:58:04;;;;;;;64.63;28.77;;;0.70;99.90;;;;;;2078312;28;20033;-84
2023/02/16 00:59:08;;;;;;;68.75;30.20;;;0.70;99.90;;;;;;2071857;28;20038;-83
2023/02/16 01:00:13;;;;;;;69.18;30.88;;;0.70;99.90;;;;;;2073479;28;20109;-84
2023/02/16 01:01:16;;;;;;;66.22;30.02;;;0.70;99.90;;;;;;2079545;28;20059;-85
2023/02/16 01:02:20;;;;;;;68.63;30.65;;;0.70;99.90;;;;;;2077673;28;20033;-86
2023/02/16 01:03:27;;;;;;;61.00;28.20;;;0.70;99.90;;;;;;2092696;28;20445;-85
2023/02/16 01:04:28;;;;;;;59.40;27.92;;;0.70;99.90;;;;;;2095109;28;20106;-86
2023/02/16 01:05:29;;;;;;;66.43;29.48;;;0.70;99.90;;;;;;2085525;28;20117;-83
2023/02/16 01:11:53;;;;;;;61.75;28.02;;;0.60;99.90;;;;;;2091801;28;20298;-85
2023/02/16 01:12:54;;;;;;;64.85;28.98;;;0.60;99.90;;;;;;2085524;28;20090;-84
2023/02/16 01:13:55;;;;;;;62.85;29.40;;;0.60;99.90;;;;;;2073185;28;20021;-84
2023/02/16 01:14:57;;;;;;;60.25;28.23;;;0.70;99.90;;;;;;2085634;28;20086;-82
2023/02/16 01:15:58;;;;;;;57.42;27.63;;;0.60;99.90;;;;;;2086398;28;20044;-85
2023/02/16 01:17:02;;;;;;;61.13;27.75;;;0.60;99.90;;;;;;2068410;28;20073;-84
2023/02/16 01:18:04;;;;;;;61.05;27.80;;;0.60;99.90;;;;;;2078617;28;20436;-84
2023/02/16 01:19:06;;;;;;;56.88;26.83;;;0.60;99.90;;;;;;2077985;28;20129;-84
2023/02/16 01:20:17;;;;;;;57.30;26.65;;;0.50;99.90;;;;;;2091820;28;20059;-84
2023/02/16 01:21:20;;;;;;;65.07;29.67;;;0.50;99.90;;;;;;2088612;28;20025;-84
2023/02/16 01:22:21;;;;;;;64.60;29.08;;;0.50;99.90;;;;;;2092244;28;20025;-84
2023/02/16 01:23:21;;;;;;;61.40;28.23;;;0.50;99.90;;;;;;2101805;28;20032;-82
2023/02/16 01:24:22;;;;;;;63.03;28.90;;;0.50;99.90;;;;;;2099682;28;20589;-84
2023/02/16 01:25:23;;;;;;;67.47;29.10;;;0.50;99.90;;;;;;2085434;28;20041;-85
2023/02/16 01:26:23;;;;;;;65.68;29.65;;;0.50;99.90;;;;;;2076839;28;20033;-85
2023/02/16 01:27:24;;;;;;;65.50;29.58;;;0.60;99.90;;;;;;2081092;28;20546;-83
2023/02/16 01:28:25;;;;;;;60.92;29.35;;;0.50;99.90;;;;;;2090236;28;20035;-83
2023/02/16 01:29:25;;;;;;;64.75;29.88;;;0.60;99.90;;;;;;2089189;28;20037;-85
2023/02/16 01:30:26;;;;;;;64.72;29.35;;;0.60;99.90;;;;;;2105686;28;20041;-85
2023/02/16 01:31:27;;;;;;;66.43;28.95;;;0.60;99.90;;;;;;2107538;28;20025;-86
2023/02/16 01:32:28;;;;;;;66.85;28.92;;;0.60;99.90;;;;;;2082593;28;20009;-87
2023/02/16 01:33:28;;;;;;;63.15;28.90;;;0.60;99.90;;;;;;2098588;28;20425;-87
2023/02/16 01:34:29;;;;;;;65.88;29.20;;;0.60;99.90;;;;;;2098668;28;20067;-86
2023/02/16 01:35:33;;;;;;;63.97;29.75;;;0.60;99.90;;;;;;2089860;28;20032;-87
2023/02/16 01:36:36;;;;;;;66.18;29.27;;;0.60;99.90;;;;;;2090870;28;20048;-84
2023/02/16 01:37:40;;;;;;;64.18;28.63;;;0.60;99.90;;;;;;2103715;28;20054;-85
2023/02/16 01:38:40;;;;;;;65.28;28.80;;;0.60;99.90;;;;;;2107369;28;20042;-87
2023/02/16 01:39:41;;;;;;;64.18;29.27;;;0.60;99.90;;;;;;2077993;28;20030;-87
2023/02/16 01:40:47;;;;;;;62.00;29.00;;;0.60;99.90;;;;;;2078383;28;20032;-85
2023/02/16 01:42:05;;;;;;;68.93;30.48;;;0.60;99.90;;;;;;2085122;28;20423;-86
2023/02/16 01:43:20;;;;;;;63.90;28.73;;;0.60;99.90;;;;;;2098595;28;20021;-85
2023/02/16 01:44:28;;;;;;;70.47;30.33;;;0.60;99.90;;;;;;2086421;28;20451;-85
2023/02/16 01:45:34;;;;;;;69.07;30.13;;;0.60;99.90;;;;;;2081655;28;20763;-85
2023/02/16 01:46:41;;;;;;;61.47;28.75;;;0.60;99.90;;;;;;2081061;28;20071;-85
2023/02/16 01:47:50;;;;;;;66.85;29.33;;;0.70;99.90;;;;;;2076778;28;20085;-85
2023/02/16 01:48:51;;;;;;;61.78;27.50;;;0.60;99.90;;;;;;2084758;28;20106;-85
2023/02/16 01:49:51;;;;;;;64.63;29.42;;;0.60;99.90;;;;;;2080296;28;20029;-86
2023/02/16 01:51:01;;;;;;;69.60;30.30;;;0.60;99.90;;;;;;2082234;28;20041;-86
2023/02/16 01:52:18;;;;;;;61.85;28.63;;;0.60;99.90;;;;;;2093997;28;20035;-88
2023/02/16 01:53:38;;;;;;;61.92;28.40;;;0.60;99.90;;;;;;2092212;28;20643;-88
2023/02/16 01:55:05;;;;;;;65.53;27.92;;;0.60;99.90;;;;;;2082471;28;20037;-86
2023/02/16 01:56:32;;;;;;;59.88;26.40;;;0.60;99.90;;;;;;2069959;28;20103;-85
2023/02/16 01:57:45;;;;;;;58.90;25.27;;;0.50;99.90;;;;;;2086843;28;20029;-87
2023/02/16 01:58:51;;;;;;;58.45;26.42;;;0.50;99.90;;;;;;2078056;28;20033;-87
2023/02/16 01:59:54;;;;;;;60.90;27.50;;;0.50;99.90;;;;;;2075858;28;20041;-87
2023/02/16 02:00:55;;;;;;;61.50;27.20;;;0.50;99.90;;;;;;2086669;28;20043;-85
2023/02/16 02:02:03;;;;;;;58.22;26.70;;;0.50;99.90;;;;;;2087772;28;20043;-86
2023/02/16 02:06:02;;;;;;;62.67;27.25;;;0.40;99.90;;;;;;2095546;28;20058;-86
2023/02/16 02:07:03;;;;;;;60.00;26.98;;;0.40;99.90;;;;;;2102283;28;20091;-88
2023/02/16 02:08:22;;;;;;;60.40;27.63;;;0.40;99.90;;;;;;2089146;28;20025;-87
2023/02/16 02:09:47;;;;;;;57.22;25.95;;;0.40;99.90;;;;;;2095249;28;20036;-89
2023/02/16 02:11:08;;;;;;;58.35;26.83;;;0.40;99.90;;;;;;2088887;28;20084;-88
2023/02/16 02:12:46;;;;;;;64.05;28.05;;;0.40;99.90;;;;;;2100433;28;20091;-88
2023/02/16 02:13:53;;;;;;;64.72;27.75;;;0.40;99.90;;;;;;2085362;28;20029;-85
2023/02/16 02:14:55;;;;;;;67.82;28.05;;;0.40;99.90;;;;;;2077248;28;20060;-86
2023/02/16 02:15:58;;;;;;;61.50;28.15;;;0.40;99.90;;;;;;2076773;28;20623;-86
2023/02/16 02:17:04;;;;;;;60.78;27.20;;;0.40;99.90;;;;;;2090209;28;20029;-87
2023/02/16 02:18:06;;;;;;;64.80;29.50;;;0.40;99.90;;;;;;2090675;28;20087;-86
2023/02/16 02:19:06;;;;;;;64.90;29.35;;;0.40;99.90;;;;;;2085135;28;20083;-87
2023/02/16 02:20:22;;;;;;;62.95;28.67;;;0.40;99.90;;;;;;2080682;28;20570;-87
2023/02/16 02:24:07;;;;;;;68.13;28.85;;;0.40;99.90;;;;;;2059185;28;20034;-86
2023/02/16 02:25:34;;;;;;;63.67;27.42;;;0.50;99.90;;;;;;2066632;28;20112;-87
2023/02/16 02:27:09;;;;;;;65.15;26.90;;;0.50;99.90;;;;;;2071917;28;20045;-87
2023/02/16 02:28:29;;;;;;;62.47;27.33;;;0.40;99.90;;;;;;2068047;28;20558;-86
2023/02/16 02:30:04;;;;;;;58.08;26.45;;;0.40;99.90;;;;;;2092030;28;20040;-87
2023/02/16 02:31:20;;;;;;;59.55;26.50;;;0.40;99.90;;;;;;2087818;28;20808;-87
2023/02/16 02:32:48;;;;;;;59.80;26.90;;;0.40;99.90;;;;;;2082111;28;20837;-87
2023/02/16 02:34:09;;;;;;;65.50;28.30;;;0.40;99.90;;;;;;2082090;28;20610;-88
2023/02/16 02:35:37;;;;;;;64.03;28.23;;;0.40;99.90;;;;;;2105111;28;20028;-88
2023/02/16 02:36:50;;;;;;;64.68;28.17;;;0.40;99.90;;;;;;2082570;28;20033;-88
2023/02/16 02:38:20;;;;;;;68.85;30.65;;;0.40;99.90;;;;;;2078920;28;21656;-87
2023/02/16 02:39:40;;;;;;;60.83;27.10;;;0.40;99.90;;;;;;2082733;28;20095;-86
2023/02/16 02:41:02;;;;;;;64.70;28.08;;;0.40;99.90;;;;;;2088890;28;20535;-88
2023/02/16 02:42:30;;;;;;;62.55;27.42;;;0.40;99.90;;;;;;2084479;28;20557;-85
2023/02/16 02:44:06;;;;;;;64.05;27.42;;;0.40;99.90;;;;;;2087203;28;20445;-85
2023/02/16 02:45:15;;;;;;;67.72;29.23;;;0.40;99.90;;;;;;2070964;28;20048;-86
2023/02/16 02:46:28;;;;;;;66.65;28.45;;;0.40;99.90;;;;;;2089583;28;20515;-86
2023/02/16 02:47:41;;;;;;;59.60;26.58;;;0.50;99.90;;;;;;2081554;28;20032;-85
2023/02/16 02:48:42;;;;;;;66.25;28.40;;;0.40;99.90;;;;;;2074476;28;20037;-86
2023/02/16 02:49:53;;;;;;;64.82;28.25;;;0.40;99.90;;;;;;2096150;28;20032;-86
2023/02/16 02:52:19;;;;;;;59.00;26.20;;;0.40;99.90;;;;;;2081227;28;20041;-85
2023/02/16 02:53:20;;;;;;;58.42;25.73;;;0.40;99.90;;;;;;2075282;28;20033;-87
2023/02/16 03:00:42;;;;;;;60.75;26.48;;;0.40;99.90;;;;;;2084663;28;20029;-87
2023/02/16 03:01:48;;;;;;;64.20;27.60;;;0.40;99.90;;;;;;2090202;28;20035;-89
2023/02/16 03:02:54;;;;;;;56.28;25.05;;;0.40;99.90;;;;;;2090088;28;20020;-86
2023/02/16 03:03:57;;;;;;;61.75;27.13;;;0.40;99.90;;;;;;2077878;28;20116;-89
2023/02/16 03:04:59;;;;;;;58.88;27.15;;;0.40;99.90;;;;;;2071803;28;20030;-88
2023/02/16 03:06:20;;;;;;;55.67;26.10;;;0.30;99.90;;;;;;2071534;28;20026;-88
2023/02/16 03:07:45;;;;;;;55.60;25.30;;;0.30;99.90;;;;;;2088471;28;20040;-88
2023/02/16 03:08:46;;;;;;;59.72;26.63;;;0.30;99.90;;;;;;2094313;28;20759;-89
2023/02/16 03:12:43;;;;;;;56.85;26.15;;;0.30;99.90;;;;;;2086022;28;20028;-88
2023/02/16 03:12:46;;;;;;;55.70;25.85;;;0.30;99.90;;;;;;2076743;28;20490;-88
2023/02/16 03:13:58;;;;;;;59.33;26.02;;;0.30;99.90;;;;;;2096770;28;20128;-86
2023/02/16 03:15:01;;;;;;;56.60;25.13;;;0.30;99.90;;;;;;2093526;28;20044;-87
2023/02/16 03:16:07;;;;;;;53.60;24.50;;;0.30;99.90;;;;;;2094994;28;20032;-89
2023/02/16 03:29:21;;;;;;;54.50;25.05;;;0.30;99.90;;;;;;2087252;28;20029;-88
2023/02/16 03:30:24;;;;;;;53.78;25.05;;;0.30;99.90;;;;;;2087863;28;20037;-89
2023/02/16 03:31:31;;;;;;;53.20;23.88;;;0.20;99.90;;;;;;2088431;28;20021;-85
2023/02/16 03:32:31;;;;;;;56.97;25.17;;;0.20;99.90;;;;;;2080592;28;20034;-89
2023/02/16 03:33:32;;;;;;;58.72;26.70;;;0.20;99.90;;;;;;2083204;28;20026;-88
2023/02/16 03:34:35;;;;;;;56.13;26.05;;;0.30;99.90;;;;;;2082597;28;20033;-87
2023/02/16 03:35:36;;;;;;;58.38;26.13;;;0.30;99.90;;;;;;2078237;28;20021;-89
2023/02/16 03:36:40;;;;;;;61.50;27.20;;;0.30;99.90;;;;;;2079109;28;20029;-89
2023/02/16 03:37:42;;;;;;;58.25;27.05;;;0.30;99.90;;;;;;2076602;28;20128;-89
2023/02/16 03:38:42;;;;;;;60.30;26.67;;;0.30;99.90;;;;;;2073180;28;20502;-89
2023/02/16 03:41:03;;;;;;;58.72;26.27;;;0.30;99.90;;;;;;2077687;28;20021;-88
2023/02/16 03:42:03;;;;;;;56.08;25.75;;;0.30;99.90;;;;;;2080600;28;20029;-87
2023/02/16 03:43:06;;;;;;;52.60;24.27;;;0.30;99.90;;;;;;2078294;28;20060;-87
2023/02/16 03:44:07;;;;;;;52.33;24.75;;;0.30;99.90;;;;;;2092678;28;20021;-88
2023/02/16 03:45:08;;;;;;;56.00;25.15;;;0.20;99.90;;;;;;2095146;28;20028;-89
2023/02/16 03:46:08;;;;;;;53.05;24.25;;;0.30;99.90;;;;;;2082201;28;20654;-90
2023/02/16 03:47:09;;;;;;;49.03;23.65;;;0.20;99.90;;;;;;2083255;28;20025;-88
2023/02/16 03:48:11;;;;;;;59.53;27.13;;;0.20;99.90;;;;;;2077209;28;20103;-89
2023/02/16 03:49:11;;;;;;;59.75;26.50;;;0.20;99.90;;;;;;2088299;28;20033;-87
2023/02/16 03:50:12;;;;;;;55.35;25.70;;;0.20;99.90;;;;;;2092742;28;20081;-86
2023/02/16 03:51:13;;;;;;;53.95;24.83;;;0.20;99.90;;;;;;2081639;28;20025;-89
2023/02/16 03:52:13;;;;;;;54.95;24.38;;;0.20;99.90;;;;;;2077412;28;20044;-86
2023/02/16 03:53:14;;;;;;;55.58;25.08;;;0.20;99.90;;;;;;2079160;28;20848;-88
2023/02/16 03:54:14;;;;;;;52.70;24.88;;;0.20;99.90;;;;;;2079671;28;20677;-88
2023/02/16 03:55:15;;;;;;;49.72;23.33;;;0.20;99.90;;;;;;2092738;28;20805;-86
2023/02/16 03:56:16;;;;;;;52.88;24.98;;;0.20;99.90;;;;;;2095044;28;20491;-88
2023/02/16 03:57:16;;;;;;;52.47;24.95;;;0.20;99.90;;;;;;2080773;28;20041;-88
2023/02/16 03:58:20;;;;;;;58.78;27.60;;;0.20;99.90;;;;;;2084388;28;20065;-89
2023/02/16 03:59:21;;;;;;;59.20;27.75;;;0.20;99.90;;;;;;2083765;28;20035;-86
2023/02/16 04:00:21;;;;;;;56.05;26.10;;;0.20;99.90;;;;;;2081348;28;20040;-87
2023/02/16 04:01:22;;;;;;;56.00;25.88;;;0.20;99.90;;;;;;2077915;28;20057;-89
2023/02/16 04:02:23;;;;;;;59.67;28.15;;;0.20;99.90;;;;;;2069490;28;20026;-90
2023/02/16 04:03:23;;;;;;;60.90;27.45;;;0.20;99.90;;;;;;2077401;28;20109;-90
2023/02/16 04:04:24;;;;;;;59.03;26.63;;;0.20;99.90;;;;;;2077979;28;20496;-88
2023/02/16 04:05:25;;;;;;;57.17;25.40;;;0.20;99.90;;;;;;2066137;28;20044;-89
2023/02/16 04:06:26;;;;;;;55.47;25.70;;;0.20;99.90;;;;;;2060558;28;20034;-87
2023/02/16 04:07:26;;;;;;;59.55;26.75;;;0.20;99.90;;;;;;2074736;28;20133;-88
2023/02/16 04:08:27;;;;;;;59.28;27.00;;;0.20;99.90;;;;;;2089964;28;20023;-87
2023/02/16 04:09:27;;;;;;;57.83;26.42;;;0.20;99.90;;;;;;2082258;28;20026;-89
2023/02/16 04:10:28;;;;;;;57.05;25.42;;;0.20;99.90;;;;;;2072241;28;20022;-88
2023/02/16 04:12:48;;;;;;;54.97;24.92;;;0.20;99.90;;;;;;2076457;28;20022;-87
2023/02/16 04:13:48;;;;;;;60.67;27.00;;;0.20;99.90;;;;;;2083286;28;20047;-87
2023/02/16 04:14:49;;;;;;;59.17;26.88;;;0.20;99.90;;;;;;2078765;28;20052;-87
2023/02/16 04:15:50;;;;;;;58.55;26.75;;;0.20;99.90;;;;;;2077393;28;20045;-85
2023/02/16 04:16:50;;;;;;;55.90;25.13;;;0.20;99.90;;;;;;2081677;28;20099;-87
2023/02/16 04:17:51;;;;;;;55.67;25.70;;;0.20;99.90;;;;;;2076703;28;20101;-86
2023/02/16 04:18:52;;;;;;;57.95;25.38;;;0.20;99.90;;;;;;2077471;28;20048;-85
2023/02/16 04:19:52;;;;;;;56.47;25.63;;;0.20;99.90;;;;;;2086916;28;20028;-87
2023/02/16 04:20:53;;;;;;;54.47;25.02;;;0.10;99.90;;;;;;2076731;28;20026;-85
2023/02/16 04:21:53;;;;;;;60.63;27.20;;;0.10;99.90;;;;;;2076347;28;20032;-87
2023/02/16 04:22:55;;;;;;;59.63;26.58;;;0.10;99.90;;;;;;2084979;28;20033;-88
2023/02/16 04:23:55;;;;;;;59.33;26.88;;;0.20;99.90;;;;;;2086557;28;20078;-87
2023/02/16 04:24:56;;;;;;;57.47;26.15;;;0.20;99.90;;;;;;2073529;28;20071;-89
2023/02/16 04:25:56;;;;;;;58.72;25.77;;;0.20;99.90;;;;;;2077198;28;20562;-88
2023/02/16 04:26:57;;;;;;;58.45;26.30;;;0.20;99.90;;;;;;2085923;28;20020;-86
2023/02/16 04:27:58;;;;;;;55.15;25.60;;;0.10;99.90;;;;;;2084912;28;20727;-88
2023/02/16 04:28:59;;;;;;;61.88;26.85;;;0.10;99.90;;;;;;2084723;28;20493;-88
2023/02/16 04:29:59;;;;;;;55.33;25.45;;;0.20;99.90;;;;;;2099842;28;20118;-88
2023/02/16 04:31:00;;;;;;;54.58;25.10;;;0.10;99.90;;;;;;2093093;28;20052;-87
2023/02/16 04:32:00;;;;;;;56.45;25.00;;;0.10;99.90;;;;;;2078750;28;20033;-89
2023/02/16 04:33:01;;;;;;;53.47;24.40;;;0.10;99.90;;;;;;2081793;28;20021;-88
2023/02/16 04:34:01;;;;;;;50.42;24.42;;;0.10;99.90;;;;;;2081698;28;20119;-89
2023/02/16 04:35:02;;;;;;;54.60;24.98;;;0.10;99.90;;;;;;2080444;28;20025;-89
2023/02/16 04:36:03;;;;;;;51.25;24.45;;;0.10;99.90;;;;;;2072479;28;20057;-89
2023/02/16 04:37:04;;;;;;;57.08;24.85;;;0.10;99.90;;;;;;2078353;28;20576;-89
2023/02/16 04:38:05;;;;;;;58.08;26.42;;;0.10;99.90;;;;;;2081226;28;20029;-88
2023/02/16 04:39:05;;;;;;;51.60;24.15;;;0.10;99.90;;;;;;2083026;28;20116;-88
2023/02/16 04:40:07;;;;;;;52.65;24.52;;;0.10;99.90;;;;;;2086056;28;20029;-86
2023/02/16 04:41:08;;;;;;;57.72;26.45;;;0.10;99.90;;;;;;2084165;28;20025;-86
2023/02/16 04:42:09;;;;;;;57.88;25.42;;;0.00;99.90;;;;;;2087229;28;20145;-87
2023/02/16 04:43:09;;;;;;;63.47;27.27;;;0.10;99.90;;;;;;2089617;28;20033;-80
2023/02/16 04:44:10;;;;;;;54.85;24.90;;;0.00;99.90;;;;;;2085670;28;20029;-80
2023/02/16 04:45:11;;;;;;;57.22;25.88;;;0.00;99.90;;;;;;2069074;28;20021;-80
2023/02/16 04:46:12;;;;;;;57.38;25.55;;;0.00;99.90;;;;;;2078826;28;20167;-80
2023/02/16 04:47:13;;;;;;;64.20;27.35;;;0.00;99.90;;;;;;2085516;28;20029;-80
2023/02/16 04:48:14;;;;;;;62.55;26.80;;;0.00;99.90;;;;;;2081496;28;20171;-80
2023/02/16 04:49:14;;;;;;;55.67;25.73;;;0.00;99.90;;;;;;2084287;28;20094;-79
2023/02/16 04:50:15;;;;;;;58.08;25.85;;;0.00;99.90;;;;;;2088598;28;20029;-78
2023/02/16 04:51:15;;;;;;;54.88;24.52;;;0.00;99.90;;;;;;2096316;28;20093;-78
2023/02/16 04:52:16;;;;;;;58.42;25.88;;;0.00;99.90;;;;;;2089594;28;20037;-78
2023/02/16 04:53:16;;;;;;;61.30;27.08;;;0.00;99.90;;;;;;2075705;28;20239;-71
2023/02/16 04:54:17;;;;;;;58.70;26.75;;;0.00;99.90;;;;;;2097492;28;20040;-72
2023/02/16 04:55:18;;;;;;;56.35;25.65;;;0.00;99.90;;;;;;2095038;28;20044;-72
2023/02/16 04:56:18;;;;;;;56.10;25.50;;;0.00;99.90;;;;;;2073818;28;20037;-72
2023/02/16 04:57:21;;;;;;;59.17;26.98;;;0.00;99.90;;;;;;2079705;28;20029;-73
2023/02/16 04:58:21;;;;;;;56.50;25.85;;;0.00;99.90;;;;;;2078834;28;20602;-72
2023/02/16 04:59:22;;;;;;;53.67;25.73;;;0.00;99.90;;;;;;2071663;28;20086;-72
2023/02/16 05:00:23;;;;;;;51.03;23.95;;;0.00;99.90;;;;;;2076230;28;20036;-73
2023/02/16 05:01:26;;;;;;;52.70;24.80;;;0.00;99.90;;;;;;2096882;28;20012;-73
2023/02/16 05:02:26;;;;;;;57.70;25.58;;;0.00;99.90;;;;;;2079022;28;20427;-73
2023/02/16 05:03:27;;;;;;;52.42;25.02;;;0.00;99.90;;;;;;2094185;28;20037;-73
2023/02/16 05:04:28;;;;;;;54.17;25.27;;;0.00;99.90;;;;;;2086744;28;20013;-72
2023/02/16 05:05:30;;;;;;;54.88;24.35;;;-0.10;99.90;;;;;;2079310;28;20031;-73
2023/02/16 05:06:30;;;;;;;52.92;23.75;;;0.00;99.90;;;;;;2081375;28;20480;-73
2023/02/16 05:07:31;;;;;;;50.60;24.20;;;0.00;99.90;;;;;;2079963;28;20052;-73
2023/02/16 05:08:32;;;;;;;51.42;24.55;;;-0.10;99.90;;;;;;2087630;28;20028;-72
2023/02/16 05:09:32;;;;;;;53.85;24.95;;;-0.10;99.90;;;;;;2081224;28;20037;-72
2023/02/16 05:10:33;;;;;;;59.30;26.15;;;-0.10;99.90;;;;;;2071887;28;20033;-72
2023/02/16 05:14:41;;;;;;;65.10;28.98;;;0.00;99.90;;;;;;2076953;28;20021;-73
2023/02/16 05:15:41;;;;;;;64.40;26.10;;;0.00;99.90;;;;;;2089130;28;20608;-73
2023/02/16 05:16:43;;;;;;;59.60;26.60;;;0.00;99.90;;;;;;2091777;28;20043;-73
2023/02/16 05:17:43;;;;;;;61.88;26.98;;;0.00;99.90;;;;;;2073068;28;20021;-72
2023/02/16 05:18:44;;;;;;;64.43;28.42;;;0.00;99.90;;;;;;2071371;28;20037;-72
2023/02/16 05:19:47;;;;;;;60.42;27.67;;;0.00;99.90;;;;;;2076707;28;20040;-73
2023/02/16 05:22:07;;;;;;;61.65;26.58;;;0.00;99.90;;;;;;2078174;28;20071;-73
2023/02/16 05:23:08;;;;;;;60.67;27.45;;;0.00;99.90;;;;;;2076951;28;20460;-73
2023/02/16 05:24:10;;;;;;;62.53;27.45;;;0.00;99.90;;;;;;2078393;28;20033;-73
2023/02/16 05:25:11;;;;;;;62.42;27.63;;;0.00;99.90;;;;;;2068544;28;20034;-73
2023/02/16 05:26:11;;;;;;;58.90;26.38;;;0.00;99.90;;;;;;2079561;28;20123;-71
2023/02/16 05:27:14;;;;;;;57.83;27.33;;;0.00;99.90;;;;;;2105886;28;20032;-74
2023/02/16 05:28:15;;;;;;;60.42;28.55;;;0.00;99.90;;;;;;2091614;28;20115;-73
2023/02/16 05:29:15;;;;;;;60.60;27.65;;;0.00;99.90;;;;;;2083336;28;20033;-72
2023/02/16 05:30:16;;;;;;;54.95;26.65;;;0.00;99.90;;;;;;2070959;28;20103;-73
2023/02/16 05:31:16;;;;;;;60.25;28.75;;;0.00;99.90;;;;;;2070736;28;20106;-80
2023/02/16 05:32:18;;;;;;;68.40;30.25;;;0.00;99.90;;;;;;2071279;28;20038;-82
2023/02/16 05:33:18;;;;;;;65.65;28.65;;;0.00;99.90;;;;;;2079081;28;20040;-87
2023/02/16 05:34:19;;;;;;;61.65;28.13;;;0.00;99.90;;;;;;2085412;28;20043;-76
2023/02/16 05:35:19;;;;;;;66.53;28.55;;;0.00;99.90;;;;;;2078633;28;20026;-87
2023/02/16 05:36:21;;;;;;;60.95;27.33;;;0.00;99.90;;;;;;2081299;28;20040;-86
2023/02/16 05:37:22;;;;;;;64.25;28.85;;;0.00;99.90;;;;;;2096136;28;20040;-89
2023/02/16 05:38:22;;;;;;;70.18;29.23;;;0.00;99.90;;;;;;2098392;28;20108;-87
2023/02/16 05:39:23;;;;;;;67.50;29.30;;;0.00;99.90;;;;;;2077729;28;20563;-88
2023/02/16 05:40:23;;;;;;;65.97;29.38;;;0.00;99.90;;;;;;2084274;28;20025;-89
2023/02/16 05:41:24;;;;;;;63.88;29.08;;;0.00;99.90;;;;;;2091388;28;20026;-88
2023/02/16 05:42:24;;;;;;;66.15;29.50;;;0.00;99.90;;;;;;2105453;28;20032;-89
2023/02/16 05:43:25;;;;;;;62.30;27.73;;;0.00;99.90;;;;;;2096689;28;20021;-88
2023/02/16 05:44:26;;;;;;;61.20;28.23;;;0.00;99.90;;;;;;2093481;28;20041;-87
2023/02/16 05:45:26;;;;;;;61.78;27.70;;;0.00;99.90;;;;;;2085543;28;20021;-87
2023/02/16 05:46:31;;;;;;;62.42;28.70;;;0.00;99.90;;;;;;2088177;28;20025;-88
2023/02/16 05:47:31;;;;;;;58.20;27.27;;;0.00;99.90;;;;;;2087023;28;20025;-87
2023/02/16 05:48:32;;;;;;;61.85;27.17;;;0.00;99.90;;;;;;2089707;28;20040;-86
2023/02/16 05:49:33;;;;;;;60.42;27.38;;;0.00;99.90;;;;;;2089364;28;20115;-87
2023/02/16 05:50:33;;;;;;;65.45;28.75;;;0.00;99.90;;;;;;2091728;28;20045;-87
2023/02/16 05:51:35;;;;;;;63.45;28.77;;;0.00;99.90;;;;;;2083322;28;20466;-88
2023/02/16 05:52:36;;;;;;;69.35;28.98;;;0.00;99.90;;;;;;2101953;28;20092;-87
2023/02/16 05:53:37;;;;;;;62.38;28.73;;;0.00;99.90;;;;;;2097317;28;20032;-86
2023/02/16 05:54:37;;;;;;;64.32;28.20;;;0.00;99.90;;;;;;2092836;28;20013;-89
2023/02/16 05:55:38;;;;;;;65.15;28.40;;;0.00;99.90;;;;;;2094526;28;20462;-87
2023/02/16 05:56:38;;;;;;;72.55;30.33;;;0.00;99.90;;;;;;2078827;28;20037;-88
2023/02/16 05:57:39;;;;;;;73.35;29.77;;;0.00;99.90;;;;;;2096802;28;20035;-86
2023/02/16 05:58:40;;;;;;;68.43;29.42;;;0.00;99.90;;;;;;2097680;28;20025;-86
2023/02/16 05:59:40;;;;;;;68.32;29.58;;;0.10;99.90;;;;;;2102434;28;20081;-86
2023/02/16 06:00:41;;;;;;;70.05;29.20;;;0.00;99.90;;;;;;2076868;28;20745;-85
2023/02/16 06:01:42;;;;;;;69.65;29.55;;;0.00;99.90;;;;;;2071110;28;20045;-88
2023/02/16 06:02:42;;;;;;;67.15;28.60;;;0.10;99.90;;;;;;2079694;28;20025;-79
2023/02/16 06:03:43;;;;;;;61.35;27.98;;;0.10;99.90;;;;;;2079147;28;20149;-88
2023/02/16 06:04:43;;;;;;;61.17;27.02;;;0.10;99.90;;;;;;2079447;28;20029;-86
2023/02/16 06:05:44;;;;;;;64.65;27.38;;;0.10;99.90;;;;;;2082516;28;20029;-85
2023/02/16 06:06:45;;;;;;;64.47;28.20;;;0.10;99.90;;;;;;2076898;28;20530;-87
2023/02/16 06:07:45;;;;;;;64.22;28.83;;;0.00;99.90;;;;;;2098127;28;20024;-86
2023/02/16 06:08:46;;;;;;;68.90;28.60;;;0.00;99.90;;;;;;2089091;28;20507;-87
2023/02/16 06:09:46;;;;;;;63.08;27.88;;;0.00;99.90;;;;;;2079524;28;20040;-87
2023/02/16 06:10:51;;;;;;;66.25;29.20;;;0.00;99.90;;;;;;2083966;28;20025;-86